createdAt,value
2018-04-07T00:01:05.719Z,22.42
2018-04-07T00:02:14.878Z,22.4
2018-04-07T00:03:23.517Z,22.43
2018-04-07T00:04:32.452Z,22.39
2018-04-07T00:05:41.618Z,22.4
2018-04-07T00:06:51.033Z,22.45
2018-04-07T00:08:00.425Z,22.4
2018-04-07T00:09:09.328Z,22.46
2018-04-07T00:10:18.479Z,22.43
2018-04-07T00:11:27.141Z,22.49
2018-04-07T00:12:36.037Z,22.4
2018-04-07T00:13:45.171Z,22.43
2018-04-07T00:14:53.824Z,22.45
2018-04-07T00:16:02.969Z,22.45
2018-04-07T00:17:11.867Z,22.45
2018-04-07T00:18:21.010Z,22.49
2018-04-07T00:19:30.161Z,22.37
2018-04-07T00:20:39.068Z,22.46
2018-04-07T00:21:47.702Z,22.37
2018-04-07T00:22:57.122Z,22.39
2018-04-07T00:24:06.019Z,22.37
2018-04-07T00:25:14.656Z,22.39
2018-04-07T00:26:23.541Z,22.39
2018-04-07T00:27:32.692Z,22.36
2018-04-07T00:28:41.856Z,22.42
2018-04-07T00:29:51.797Z,22.39
2018-04-07T00:31:00.958Z,22.37
2018-04-07T00:32:09.894Z,22.4
2018-04-07T00:33:18.793Z,22.36
2018-04-07T00:34:27.688Z,22.36
2018-04-07T00:35:36.339Z,22.35
2018-04-07T00:36:46.021Z,22.4
2018-04-07T00:37:55.167Z,22.35
2018-04-07T00:39:04.105Z,22.36
2018-04-07T00:40:13.245Z,22.28
2018-04-07T00:41:22.663Z,22.36
2018-04-07T00:42:31.814Z,22.35
2018-04-07T00:43:40.703Z,22.31
2018-04-07T00:44:49.854Z,22.33
2018-04-07T00:45:58.490Z,22.35
2018-04-07T00:47:07.399Z,22.27
2018-04-07T00:48:16.304Z,22.28
2018-04-07T00:49:25.465Z,22.33
2018-04-07T00:50:34.369Z,22.28
2018-04-07T00:51:43.011Z,22.35
2018-04-07T00:52:52.167Z,22.31
2018-04-07T00:54:01.613Z,22.27
2018-04-07T00:55:11.018Z,22.31
2018-04-07T00:56:19.926Z,22.28
2018-04-07T00:57:28.845Z,22.28
2018-04-07T00:58:38.249Z,22.25
2018-04-07T00:59:47.411Z,22.3
2018-04-07T01:00:56.567Z,22.24
2018-04-07T01:02:06.236Z,22.27
2018-04-07T01:03:15.170Z,22.27
2018-04-07T01:04:24.058Z,22.33
2018-04-07T01:05:32.950Z,22.27
2018-04-07T01:06:42.095Z,22.28
2018-04-07T01:07:51.261Z,22.3
2018-04-07T01:09:00.152Z,22.37
2018-04-07T01:10:09.584Z,22.25
2018-04-07T01:11:19.271Z,22.27
2018-04-07T01:12:28.705Z,22.28
2018-04-07T01:13:37.610Z,22.3
2018-04-07T01:14:46.780Z,22.27
2018-04-07T01:15:56.191Z,22.27
2018-04-07T01:17:05.329Z,22.27
2018-04-07T01:18:14.210Z,22.22
2018-04-07T01:19:23.126Z,22.27
2018-04-07T01:20:32.282Z,22.2
2018-04-07T01:21:41.165Z,22.22
2018-04-07T01:22:50.559Z,22.14
2018-04-07T01:23:59.721Z,22.25
2018-04-07T01:25:08.871Z,22.25
2018-04-07T01:26:17.530Z,22.27
2018-04-07T01:27:26.939Z,22.27
2018-04-07T01:28:35.820Z,22.22
2018-04-07T01:29:44.970Z,22.25
2018-04-07T01:30:54.394Z,22.2
2018-04-07T01:32:03.565Z,22.17
2018-04-07T01:33:12.712Z,22.21
2018-04-07T01:34:21.856Z,22.18
2018-04-07T01:35:30.766Z,22.2
2018-04-07T01:36:39.666Z,22.21
2018-04-07T01:37:48.578Z,22.24
2018-04-07T01:38:57.730Z,22.21
2018-04-07T01:40:06.895Z,22.18
2018-04-07T01:41:16.064Z,22.18
2018-04-07T01:42:24.956Z,22.18
2018-04-07T01:43:34.359Z,22.21
2018-04-07T01:44:43.526Z,22.2
2018-04-07T01:45:52.923Z,22.14
2018-04-07T01:47:01.917Z,22.2
2018-04-07T01:48:10.822Z,22.2
2018-04-07T01:49:20.214Z,22.15
2018-04-07T01:50:29.108Z,22.22
2018-04-07T01:51:37.741Z,22.21
2018-04-07T01:52:46.900Z,22.22
2018-04-07T01:53:56.054Z,22.21
2018-04-07T01:55:04.734Z,22.2
2018-04-07T01:56:13.623Z,22.21
2018-04-07T01:57:23.033Z,22.22
2018-04-07T01:58:31.669Z,22.12
2018-04-07T01:59:40.558Z,22.17
2018-04-07T02:00:49.704Z,22.24
2018-04-07T02:01:59.106Z,22.21
2018-04-07T02:03:08.022Z,22.2
2018-04-07T02:04:16.917Z,22.14
2018-04-07T02:05:25.803Z,22.18
2018-04-07T02:06:34.706Z,22.22
2018-04-07T02:07:44.107Z,22.1
2018-04-07T02:08:53.014Z,22.18
2018-04-07T02:10:01.914Z,22.24
2018-04-07T02:11:10.795Z,22.14
2018-04-07T02:12:19.432Z,22.18
2018-04-07T02:13:28.350Z,22.25
2018-04-07T02:14:36.997Z,22.07
2018-04-07T02:15:45.890Z,22.17
2018-04-07T02:16:54.797Z,22.18
2018-04-07T02:18:03.681Z,22.2
2018-04-07T02:19:12.827Z,22.12
2018-04-07T02:20:21.466Z,22.18
2018-04-07T02:21:30.637Z,22.14
2018-04-07T02:22:39.267Z,22.2
2018-04-07T02:23:48.955Z,22.17
2018-04-07T02:24:58.101Z,22.14
2018-04-07T02:26:06.975Z,22.17
2018-04-07T02:27:16.682Z,22.14
2018-04-07T02:28:25.828Z,22.17
2018-04-07T02:29:34.453Z,22.17
2018-04-07T02:30:43.857Z,22.09
2018-04-07T02:31:52.495Z,22.12
2018-04-07T02:33:01.988Z,22.05
2018-04-07T02:34:10.865Z,22.03
2018-04-07T02:35:19.766Z,22.18
2018-04-07T02:36:28.662Z,22.17
2018-04-07T02:37:38.098Z,22.17
2018-04-07T02:38:46.752Z,22.05
2018-04-07T02:39:56.158Z,22.1
2018-04-07T02:41:05.056Z,22
2018-04-07T02:42:13.680Z,22.05
2018-04-07T02:43:23.126Z,22.06
2018-04-07T02:44:32.293Z,22.07
2018-04-07T02:45:41.461Z,22.1
2018-04-07T02:46:50.344Z,22.02
2018-04-07T02:47:59.492Z,22.05
2018-04-07T02:49:08.898Z,22.15
2018-04-07T02:50:17.615Z,22.06
2018-04-07T02:51:27.155Z,22.03
2018-04-07T02:52:36.331Z,22.09
2018-04-07T02:53:45.533Z,21.99
2018-04-07T02:54:55.217Z,22.06
2018-04-07T02:56:04.177Z,21.98
2018-04-07T02:57:13.643Z,22.12
2018-04-07T02:58:23.060Z,22.12
2018-04-07T02:59:32.231Z,22
2018-04-07T03:00:41.942Z,22.09
2018-04-07T03:01:51.106Z,22
2018-04-07T03:03:00.004Z,22.07
2018-04-07T03:04:09.678Z,21.98
2018-04-07T03:05:19.090Z,22.06
2018-04-07T03:06:28.238Z,22.05
2018-04-07T03:07:36.894Z,21.98
2018-04-07T03:08:46.062Z,22
2018-04-07T03:09:55.223Z,22
2018-04-07T03:11:03.847Z,21.94
2018-04-07T03:12:12.487Z,21.96
2018-04-07T03:13:21.644Z,21.96
2018-04-07T03:14:31.057Z,22.03
2018-04-07T03:15:39.698Z,22.05
2018-04-07T03:16:49.104Z,21.98
2018-04-07T03:17:57.727Z,22.02
2018-04-07T03:19:06.898Z,21.98
2018-04-07T03:20:16.067Z,21.94
2018-04-07T03:21:24.762Z,21.92
2018-04-07T03:22:33.927Z,21.99
2018-04-07T03:23:43.346Z,21.98
2018-04-07T03:24:52.274Z,21.94
2018-04-07T03:26:01.176Z,21.92
2018-04-07T03:27:10.076Z,21.96
2018-04-07T03:28:19.235Z,21.99
2018-04-07T03:29:28.146Z,21.99
2018-04-07T03:30:37.290Z,22
2018-04-07T03:31:46.177Z,21.96
2018-04-07T03:32:56.039Z,21.96
2018-04-07T03:34:04.669Z,21.9
2018-04-07T03:35:13.561Z,22.02
2018-04-07T03:36:22.708Z,22.03
2018-04-07T03:37:31.600Z,21.99
2018-04-07T03:38:41.006Z,21.98
2018-04-07T03:39:49.889Z,21.99
2018-04-07T03:40:58.776Z,21.9
2018-04-07T03:42:07.938Z,22
2018-04-07T03:43:16.892Z,21.96
2018-04-07T03:44:25.536Z,21.94
2018-04-07T03:45:34.416Z,21.99
2018-04-07T03:46:43.559Z,21.9
2018-04-07T03:47:52.963Z,21.92
2018-04-07T03:49:01.852Z,21.9
2018-04-07T03:50:11.257Z,22.02
2018-04-07T03:51:20.149Z,21.88
2018-04-07T03:52:29.291Z,21.99
2018-04-07T03:53:38.442Z,21.99
2018-04-07T03:54:47.407Z,21.98
2018-04-07T03:55:56.818Z,21.96
2018-04-07T03:57:05.440Z,21.94
2018-04-07T03:58:14.599Z,21.99
2018-04-07T03:59:23.242Z,21.98
2018-04-07T04:00:32.380Z,21.92
2018-04-07T04:01:41.596Z,21.84
2018-04-07T04:02:50.739Z,21.99
2018-04-07T04:04:00.395Z,21.92
2018-04-07T04:05:09.555Z,21.86
2018-04-07T04:06:18.964Z,21.96
2018-04-07T04:07:28.107Z,21.92
2018-04-07T04:08:37.004Z,21.96
2018-04-07T04:09:45.890Z,21.98
2018-04-07T04:10:54.796Z,21.86
2018-04-07T04:12:04.185Z,21.86
2018-04-07T04:13:13.133Z,21.9
2018-04-07T04:14:21.768Z,21.86
2018-04-07T04:15:30.656Z,21.94
2018-04-07T04:16:39.579Z,21.96
2018-04-07T04:17:48.814Z,21.99
2018-04-07T04:18:57.708Z,21.9
2018-04-07T04:20:07.113Z,21.88
2018-04-07T04:21:16.070Z,22
2018-04-07T04:22:25.231Z,21.96
2018-04-07T04:23:34.673Z,21.91
2018-04-07T04:24:43.822Z,21.84
2018-04-07T04:25:53.232Z,21.91
2018-04-07T04:27:02.439Z,21.91
2018-04-07T04:28:11.331Z,21.94
2018-04-07T04:29:20.515Z,21.91
2018-04-07T04:30:30.182Z,21.84
2018-04-07T04:31:39.864Z,21.84
2018-04-07T04:32:49.019Z,21.86
2018-04-07T04:33:58.177Z,21.92
2018-04-07T04:35:07.860Z,21.92
2018-04-07T04:36:17.038Z,21.92
2018-04-07T04:37:26.184Z,21.96
2018-04-07T04:38:35.078Z,21.98
2018-04-07T04:39:44.033Z,21.92
2018-04-07T04:40:52.678Z,21.96
2018-04-07T04:42:01.589Z,21.96
2018-04-07T04:43:10.762Z,21.91
2018-04-07T04:44:19.916Z,21.98
2018-04-07T04:45:29.115Z,21.82
2018-04-07T04:46:38.275Z,21.94
2018-04-07T04:47:46.919Z,21.9
2018-04-07T04:48:55.599Z,21.9
2018-04-07T04:50:04.493Z,21.92
2018-04-07T04:51:13.667Z,21.86
2018-04-07T04:52:22.576Z,21.88
2018-04-07T04:53:31.830Z,21.9
2018-04-07T04:54:40.770Z,21.9
2018-04-07T04:55:49.496Z,21.9
2018-04-07T04:56:58.139Z,21.8
2018-04-07T04:58:07.287Z,21.8
2018-04-07T04:59:16.434Z,21.88
2018-04-07T05:00:25.580Z,21.86
2018-04-07T05:01:34.490Z,21.8
2018-04-07T05:02:43.895Z,21.88
2018-04-07T05:03:52.601Z,21.86
2018-04-07T05:05:02.482Z,21.77
2018-04-07T05:06:11.119Z,21.92
2018-04-07T05:07:20.083Z,21.88
2018-04-07T05:08:29.314Z,21.9
2018-04-07T05:09:38.749Z,21.84
2018-04-07T05:10:47.660Z,21.86
2018-04-07T05:11:56.603Z,21.75
2018-04-07T05:13:05.557Z,21.74
2018-04-07T05:14:14.203Z,21.86
2018-04-07T05:15:22.840Z,21.88
2018-04-07T05:16:32.008Z,21.77
2018-04-07T05:17:40.898Z,21.83
2018-04-07T05:18:49.551Z,21.91
2018-04-07T05:19:58.449Z,21.74
2018-04-07T05:21:07.644Z,21.82
2018-04-07T05:22:16.826Z,21.82
2018-04-07T05:23:25.472Z,21.84
2018-04-07T05:24:34.653Z,21.72
2018-04-07T05:25:43.797Z,21.83
2018-04-07T05:26:53.231Z,21.79
2018-04-07T05:28:02.384Z,21.74
2018-04-07T05:29:11.799Z,21.84
2018-04-07T05:30:20.948Z,21.77
2018-04-07T05:31:30.379Z,21.74
2018-04-07T05:32:39.548Z,21.83
2018-04-07T05:33:48.459Z,21.72
2018-04-07T05:34:58.119Z,21.79
2018-04-07T05:36:07.008Z,21.74
2018-04-07T05:37:16.199Z,21.84
2018-04-07T05:38:25.639Z,21.9
2018-04-07T05:39:35.293Z,21.79
2018-04-07T05:40:44.703Z,21.75
2018-04-07T05:41:53.863Z,21.84
2018-04-07T05:43:02.493Z,21.77
2018-04-07T05:44:11.917Z,21.69
2018-04-07T05:45:20.807Z,21.77
2018-04-07T05:46:29.961Z,21.75
2018-04-07T05:47:39.368Z,21.75
2018-04-07T05:48:48.284Z,21.83
2018-04-07T05:49:57.701Z,21.77
2018-04-07T05:51:06.879Z,21.82
2018-04-07T05:52:16.033Z,21.77
2018-04-07T05:53:25.692Z,21.72
2018-04-07T05:54:35.356Z,21.83
2018-04-07T05:55:44.591Z,21.8
2018-04-07T05:56:54.044Z,21.79
2018-04-07T05:58:03.436Z,21.82
2018-04-07T05:59:12.600Z,21.83
2018-04-07T06:00:21.252Z,21.8
2018-04-07T06:01:30.396Z,21.79
2018-04-07T06:02:39.309Z,21.8
2018-04-07T06:03:48.214Z,21.79
2018-04-07T06:04:57.121Z,21.79
2018-04-07T06:06:06.526Z,21.79
2018-04-07T06:07:15.685Z,21.77
2018-04-07T06:08:24.837Z,21.77
2018-04-07T06:09:33.732Z,21.77
2018-04-07T06:10:42.669Z,21.77
2018-04-07T06:11:51.326Z,21.77
2018-04-07T06:13:00.215Z,21.74
2018-04-07T06:14:09.118Z,21.77
2018-04-07T06:15:18.532Z,21.72
2018-04-07T06:16:27.422Z,21.74
2018-04-07T06:17:36.847Z,21.71
2018-04-07T06:18:46.504Z,21.75
2018-04-07T06:19:55.910Z,21.72
2018-04-07T06:21:05.051Z,21.74
2018-04-07T06:22:13.947Z,21.72
2018-04-07T06:23:22.842Z,21.74
2018-04-07T06:24:31.722Z,21.69
2018-04-07T06:25:40.369Z,21.74
2018-04-07T06:26:49.520Z,21.75
2018-04-07T06:27:58.677Z,21.71
2018-04-07T06:29:07.562Z,21.75
2018-04-07T06:30:17.221Z,21.72
2018-04-07T06:31:26.115Z,21.72
2018-04-07T06:32:35.009Z,21.79
2018-04-07T06:33:43.634Z,21.75
2018-04-07T06:34:52.563Z,21.74
2018-04-07T06:36:01.780Z,21.75
2018-04-07T06:37:10.943Z,21.68
2018-04-07T06:38:20.354Z,21.75
2018-04-07T06:39:29.292Z,21.75
2018-04-07T06:40:38.720Z,21.79
2018-04-07T06:41:47.934Z,21.69
2018-04-07T06:42:57.091Z,21.77
2018-04-07T06:44:05.799Z,21.79
2018-04-07T06:45:14.987Z,21.74
2018-04-07T06:46:23.607Z,21.77
2018-04-07T06:47:32.496Z,21.74
2018-04-07T06:48:41.948Z,21.79
2018-04-07T06:49:50.923Z,21.74
2018-04-07T06:50:59.847Z,21.79
2018-04-07T06:52:09.023Z,21.72
2018-04-07T06:53:17.918Z,21.74
2018-04-07T06:54:27.064Z,21.74
2018-04-07T06:55:36.223Z,21.77
2018-04-07T06:56:44.852Z,21.72
2018-04-07T06:57:53.507Z,21.79
2018-04-07T06:59:02.696Z,21.77
2018-04-07T07:00:11.598Z,21.77
2018-04-07T07:01:21.019Z,21.79
2018-04-07T07:02:29.935Z,21.79
2018-04-07T07:03:38.588Z,21.75
2018-04-07T07:04:47.228Z,21.8
2018-04-07T07:05:56.647Z,21.8
2018-04-07T07:07:05.539Z,21.75
2018-04-07T07:08:14.950Z,21.74
2018-04-07T07:09:24.368Z,21.72
2018-04-07T07:10:33.519Z,21.77
2018-04-07T07:11:42.429Z,21.74
2018-04-07T07:12:51.058Z,21.83
2018-04-07T07:14:00.725Z,21.82
2018-04-07T07:15:09.356Z,21.8
2018-04-07T07:16:18.240Z,21.77
2018-04-07T07:17:27.137Z,21.8
2018-04-07T07:18:35.771Z,21.82
2018-04-07T07:19:45.173Z,21.77
2018-04-07T07:20:54.842Z,21.75
2018-04-07T07:22:03.475Z,21.79
2018-04-07T07:23:12.387Z,21.8
2018-04-07T07:24:21.622Z,21.86
2018-04-07T07:25:30.538Z,21.72
2018-04-07T07:26:39.488Z,21.82
2018-04-07T07:27:48.642Z,21.82
2018-04-07T07:28:57.619Z,21.82
2018-04-07T07:30:07.334Z,21.77
2018-04-07T07:31:16.517Z,21.75
2018-04-07T07:32:25.154Z,21.75
2018-04-07T07:33:34.323Z,21.77
2018-04-07T07:34:43.493Z,21.8
2018-04-07T07:35:52.678Z,21.8
2018-04-07T07:37:01.331Z,21.74
2018-04-07T07:38:10.285Z,21.84
2018-04-07T07:39:18.922Z,21.75
2018-04-07T07:40:27.810Z,21.79
2018-04-07T07:41:36.957Z,21.79
2018-04-07T07:42:45.843Z,21.77
2018-04-07T07:43:54.769Z,21.84
2018-04-07T07:45:03.925Z,21.98
2018-04-07T07:46:12.800Z,21.94
2018-04-07T07:47:21.688Z,21.96
2018-04-07T07:48:31.417Z,21.88
2018-04-07T07:49:40.625Z,21.91
2018-04-07T07:50:50.040Z,21.9
2018-04-07T07:51:59.520Z,21.94
2018-04-07T07:53:09.173Z,21.92
2018-04-07T07:54:17.799Z,21.99
2018-04-07T07:55:26.690Z,21.96
2018-04-07T07:56:35.327Z,21.99
2018-04-07T07:57:43.959Z,22.02
2018-04-07T07:58:52.848Z,21.91
2018-04-07T08:00:02.150Z,21.99
2018-04-07T08:01:10.776Z,21.91
2018-04-07T08:02:19.702Z,22
2018-04-07T08:03:28.810Z,21.94
2018-04-07T08:04:38.273Z,21.99
2018-04-07T08:05:47.441Z,22.06
2018-04-07T08:06:56.850Z,21.99
2018-04-07T08:08:05.986Z,22
2018-04-07T08:09:15.653Z,21.99
2018-04-07T08:10:24.292Z,22.02
2018-04-07T08:11:33.236Z,22
2018-04-07T08:12:42.144Z,21.98
2018-04-07T08:13:51.299Z,21.94
2018-04-07T08:15:00.706Z,21.99
2018-04-07T08:16:09.589Z,22.02
2018-04-07T08:17:18.235Z,21.99
2018-04-07T08:18:27.420Z,22
2018-04-07T08:19:37.545Z,22.02
2018-04-07T08:20:46.808Z,22.02
2018-04-07T08:21:55.743Z,21.98
2018-04-07T08:23:04.845Z,21.99
2018-04-07T08:24:13.759Z,22.02
2018-04-07T08:25:22.902Z,21.98
2018-04-07T08:26:31.530Z,21.98
2018-04-07T08:27:40.418Z,22.02
2018-04-07T08:28:49.341Z,21.99
2018-04-07T08:29:58.228Z,22.05
2018-04-07T08:31:07.676Z,22
2018-04-07T08:32:17.206Z,21.98
2018-04-07T08:33:26.324Z,21.94
2018-04-07T08:34:35.241Z,21.96
2018-04-07T08:35:44.390Z,22
2018-04-07T08:36:53.533Z,21.99
2018-04-07T08:38:02.429Z,21.96
2018-04-07T08:39:11.332Z,22
2018-04-07T08:40:20.510Z,22
2018-04-07T08:41:29.417Z,21.96
2018-04-07T08:42:38.568Z,21.96
2018-04-07T08:43:47.709Z,22
2018-04-07T08:44:56.851Z,22
2018-04-07T08:46:05.757Z,21.94
2018-04-07T08:47:15.172Z,21.96
2018-04-07T08:48:23.956Z,21.98
2018-04-07T08:49:33.106Z,22.05
2018-04-07T08:50:42.728Z,22.06
2018-04-07T08:51:52.997Z,21.98
2018-04-07T08:53:02.077Z,22.05
2018-04-07T08:54:11.554Z,22
2018-04-07T08:55:20.463Z,22.05
2018-04-07T08:56:30.065Z,22
2018-04-07T08:57:38.972Z,22
2018-04-07T08:58:47.916Z,21.94
2018-04-07T08:59:57.145Z,21.96
2018-04-07T09:01:06.164Z,22.1
2018-04-07T09:02:15.065Z,21.99
2018-04-07T09:03:23.952Z,22.03
2018-04-07T09:04:33.101Z,22
2018-04-07T09:05:42.577Z,21.96
2018-04-07T09:06:51.474Z,22.02
2018-04-07T09:08:01.015Z,21.98
2018-04-07T09:09:09.864Z,21.98
2018-04-07T09:10:20.041Z,22.06
2018-04-07T09:11:29.011Z,21.98
2018-04-07T09:12:37.906Z,22.03
2018-04-07T09:13:46.798Z,22.1
2018-04-07T09:14:55.992Z,22.05
2018-04-07T09:16:04.883Z,22.02
2018-04-07T09:17:14.282Z,22.05
2018-04-07T09:18:23.698Z,22.05
2018-04-07T09:19:32.575Z,22.06
2018-04-07T09:20:41.473Z,22.07
2018-04-07T09:21:50.642Z,22.15
2018-04-07T09:22:59.872Z,22.06
2018-04-07T09:24:09.554Z,22.05
2018-04-07T09:25:18.972Z,22.14
2018-04-07T09:26:27.897Z,22.1
2018-04-07T09:27:37.067Z,22.18
2018-04-07T09:28:45.958Z,22.2
2018-04-07T09:29:54.915Z,22.18
2018-04-07T09:31:03.808Z,22.15
2018-04-07T09:32:12.978Z,22.12
2018-04-07T09:33:22.384Z,22.15
2018-04-07T09:34:31.799Z,22.14
2018-04-07T09:35:40.959Z,22.15
2018-04-07T09:36:50.154Z,22.1
2018-04-07T09:37:59.568Z,22.17
2018-04-07T09:39:08.989Z,22.17
2018-04-07T09:40:18.143Z,22.2
2018-04-07T09:41:26.762Z,22.17
2018-04-07T09:42:35.658Z,22.1
2018-04-07T09:43:44.822Z,22.14
2018-04-07T09:44:53.461Z,22.09
2018-04-07T09:46:02.115Z,22.15
2018-04-07T09:47:11.269Z,22.09
2018-04-07T09:48:20.688Z,22.2
2018-04-07T09:49:29.624Z,22.05
2018-04-07T09:50:38.797Z,22.14
2018-04-07T09:51:47.958Z,22.07
2018-04-07T09:52:57.428Z,22.17
2018-04-07T09:54:06.334Z,22.12
2018-04-07T09:55:15.238Z,22.17
2018-04-07T09:56:24.223Z,22.15
2018-04-07T09:57:33.430Z,21.99
2018-04-07T09:58:42.345Z,22.1
2018-04-07T09:59:51.026Z,22.15
2018-04-07T10:01:00.131Z,22.17
2018-04-07T10:02:09.288Z,22.07
2018-04-07T10:03:18.454Z,22.17
2018-04-07T10:04:27.128Z,22.12
2018-04-07T10:05:36.296Z,22.18
2018-04-07T10:06:45.207Z,22.17
2018-04-07T10:07:54.113Z,22.03
2018-04-07T10:09:03.275Z,22.17
2018-04-07T10:10:12.682Z,22.03
2018-04-07T10:11:22.352Z,22.12
2018-04-07T10:12:31.516Z,22.14
2018-04-07T10:13:40.703Z,22.1
2018-04-07T10:14:49.926Z,22.1
2018-04-07T10:15:58.577Z,22.15
2018-04-07T10:17:07.241Z,22.03
2018-04-07T10:18:16.642Z,22.07
2018-04-07T10:19:25.536Z,22.05
2018-04-07T10:20:34.697Z,22.03
2018-04-07T10:21:43.601Z,22.14
2018-04-07T10:22:53.256Z,22.15
2018-04-07T10:24:02.450Z,22.05
2018-04-07T10:25:11.614Z,22.05
2018-04-07T10:26:21.021Z,22.03
2018-04-07T10:27:29.917Z,22.17
2018-04-07T10:28:38.823Z,22.17
2018-04-07T10:29:47.750Z,22.06
2018-04-07T10:30:56.910Z,22.21
2018-04-07T10:32:06.132Z,22.05
2018-04-07T10:33:15.119Z,22.14
2018-04-07T10:34:24.546Z,22.15
2018-04-07T10:35:33.179Z,22.03
2018-04-07T10:36:42.078Z,22.05
2018-04-07T10:37:50.983Z,22.18
2018-04-07T10:38:59.858Z,22
2018-04-07T10:40:09.453Z,22.07
2018-04-07T10:41:18.600Z,22.07
2018-04-07T10:42:28.005Z,22.1
2018-04-07T10:43:36.678Z,22.05
2018-04-07T10:44:45.823Z,22.17
2018-04-07T10:45:55.243Z,22.14
2018-04-07T10:47:03.875Z,22.18
2018-04-07T10:48:13.248Z,22.09
2018-04-07T10:49:22.731Z,22.17
2018-04-07T10:50:31.360Z,22.18
2018-04-07T10:51:40.300Z,22.12
2018-04-07T10:52:49.003Z,22.07
2018-04-07T10:53:58.476Z,22.2
2018-04-07T10:55:07.141Z,22.14
2018-04-07T10:56:16.048Z,22.2
2018-04-07T10:57:24.947Z,22.2
2018-04-07T10:58:33.579Z,22.2
2018-04-07T10:59:42.730Z,22.24
2018-04-07T11:00:51.353Z,22.27
2018-04-07T11:01:59.992Z,22.39
2018-04-07T11:03:09.402Z,22.42
2018-04-07T11:04:18.568Z,22.46
2018-04-07T11:05:27.725Z,22.47
2018-04-07T11:06:36.364Z,22.52
2018-04-07T11:07:45.552Z,22.57
2018-04-07T11:08:54.454Z,22.55
2018-04-07T11:10:03.852Z,22.58
2018-04-07T11:11:13.315Z,22.54
2018-04-07T11:12:22.742Z,22.68
2018-04-07T11:13:31.916Z,22.65
2018-04-07T11:14:41.588Z,22.57
2018-04-07T11:15:50.231Z,22.58
2018-04-07T11:16:59.377Z,22.61
2018-04-07T11:18:08.549Z,22.72
2018-04-07T11:19:17.522Z,22.62
2018-04-07T11:20:26.673Z,22.72
2018-04-07T11:21:35.820Z,22.64
2018-04-07T11:22:45.029Z,22.7
2018-04-07T11:23:53.671Z,22.73
2018-04-07T11:25:02.833Z,22.75
2018-04-07T11:26:11.987Z,22.68
2018-04-07T11:27:21.561Z,22.72
2018-04-07T11:28:30.452Z,22.8
2018-04-07T11:29:39.606Z,22.76
2018-04-07T11:30:48.493Z,22.79
2018-04-07T11:31:57.941Z,22.82
2018-04-07T11:33:07.367Z,22.82
2018-04-07T11:34:16.571Z,22.83
2018-04-07T11:35:26.041Z,22.8
2018-04-07T11:36:34.892Z,22.82
2018-04-07T11:37:43.792Z,22.82
2018-04-07T11:38:52.947Z,22.77
2018-04-07T11:40:01.590Z,22.83
2018-04-07T11:41:10.475Z,22.83
2018-04-07T11:42:19.363Z,22.79
2018-04-07T11:43:27.994Z,22.82
2018-04-07T11:44:37.146Z,22.85
2018-04-07T11:45:46.329Z,22.77
2018-04-07T11:46:55.215Z,22.82
2018-04-07T11:48:04.201Z,22.77
2018-04-07T11:49:14.136Z,22.86
2018-04-07T11:50:22.776Z,22.82
2018-04-07T11:51:31.689Z,22.75
2018-04-07T11:52:40.587Z,22.76
2018-04-07T11:53:49.514Z,22.72
2018-04-07T11:54:58.663Z,22.7
2018-04-07T11:56:08.077Z,22.72
2018-04-07T11:57:17.264Z,22.76
2018-04-07T11:58:26.175Z,22.75
2018-04-07T11:59:35.324Z,22.75
2018-04-07T12:00:44.300Z,22.75
2018-04-07T12:01:54.203Z,22.7
2018-04-07T12:03:03.118Z,22.75
2018-04-07T12:04:12.003Z,22.79
2018-04-07T12:05:20.903Z,22.79
2018-04-07T12:06:30.386Z,22.7
2018-04-07T12:07:39.808Z,22.7
2018-04-07T12:08:48.470Z,22.68
2018-04-07T12:09:57.392Z,22.68
2018-04-07T12:11:06.042Z,22.72
2018-04-07T12:12:14.966Z,22.72
2018-04-07T12:13:24.109Z,22.7
2018-04-07T12:14:32.772Z,22.67
2018-04-07T12:15:41.926Z,22.68
2018-04-07T12:16:50.815Z,22.7
2018-04-07T12:18:00.510Z,22.67
2018-04-07T12:19:09.400Z,22.7
2018-04-07T12:20:18.032Z,22.61
2018-04-07T12:21:26.947Z,22.57
2018-04-07T12:22:35.584Z,22.65
2018-04-07T12:23:44.787Z,22.61
2018-04-07T12:24:53.928Z,22.61
2018-04-07T12:26:02.822Z,22.6
2018-04-07T12:27:11.715Z,22.58
2018-04-07T12:28:20.880Z,22.64
2018-04-07T12:29:30.534Z,22.57
2018-04-07T12:30:39.446Z,22.6
2018-04-07T12:31:48.609Z,22.58
2018-04-07T12:32:57.508Z,22.58
2018-04-07T12:34:06.662Z,22.58
2018-04-07T12:35:15.797Z,22.68
2018-04-07T12:36:24.435Z,22.67
2018-04-07T12:37:33.600Z,22.61
2018-04-07T12:38:42.770Z,22.62
2018-04-07T12:39:52.476Z,22.57
2018-04-07T12:41:01.887Z,22.67
2018-04-07T12:42:11.066Z,22.61
2018-04-07T12:43:19.975Z,22.61
2018-04-07T12:44:29.139Z,22.55
2018-04-07T12:45:38.324Z,22.57
2018-04-07T12:46:47.491Z,22.62
2018-04-07T12:47:56.673Z,22.58
2018-04-07T12:49:05.570Z,22.61
2018-04-07T12:50:14.473Z,22.52
2018-04-07T12:51:23.634Z,22.6
2018-04-07T12:52:32.525Z,22.61
2018-04-07T12:53:41.162Z,22.62
2018-04-07T12:54:49.838Z,22.6
2018-04-07T12:55:58.790Z,22.6
2018-04-07T12:57:07.956Z,22.61
2018-04-07T12:58:16.858Z,22.6
2018-04-07T12:59:26.025Z,22.52
2018-04-07T13:00:35.151Z,22.6
2018-04-07T13:01:44.059Z,22.54
2018-04-07T13:02:53.243Z,22.6
2018-04-07T13:04:02.661Z,22.6
2018-04-07T13:05:11.809Z,22.68
2018-04-07T13:06:20.725Z,22.6
2018-04-07T13:07:29.876Z,22.62
2018-04-07T13:08:38.775Z,22.57
2018-04-07T13:09:47.699Z,22.61
2018-04-07T13:10:56.591Z,22.6
2018-04-07T13:12:05.506Z,22.6
2018-04-07T13:13:14.932Z,22.61
2018-04-07T13:14:24.097Z,22.61
2018-04-07T13:15:32.881Z,22.67
2018-04-07T13:16:42.544Z,22.58
2018-04-07T13:17:51.437Z,22.6
2018-04-07T13:19:00.404Z,22.61
2018-04-07T13:20:09.556Z,22.65
2018-04-07T13:21:19.213Z,22.57
2018-04-07T13:22:28.175Z,22.68
2018-04-07T13:23:38.093Z,22.61
2018-04-07T13:24:47.260Z,22.61
2018-04-07T13:25:56.166Z,22.6
2018-04-07T13:27:05.073Z,22.54
2018-04-07T13:28:13.990Z,22.67
2018-04-07T13:29:23.419Z,22.67
2018-04-07T13:30:32.071Z,22.57
2018-04-07T13:31:41.230Z,22.58
2018-04-07T13:32:49.904Z,22.61
2018-04-07T13:33:59.309Z,22.61
2018-04-07T13:35:08.743Z,22.6
2018-04-07T13:36:17.656Z,22.62
2018-04-07T13:37:26.793Z,22.6
2018-04-07T13:38:35.687Z,22.61
2018-04-07T13:39:44.346Z,22.67
2018-04-07T13:40:53.492Z,22.67
2018-04-07T13:42:02.686Z,22.6
2018-04-07T13:43:12.103Z,22.6
2018-04-07T13:44:22.058Z,22.6
2018-04-07T13:45:30.931Z,22.67
2018-04-07T13:46:40.063Z,22.64
2018-04-07T13:47:48.700Z,22.72
2018-04-07T13:48:57.592Z,22.68
2018-04-07T13:50:06.476Z,22.73
2018-04-07T13:51:15.375Z,22.67
2018-04-07T13:52:24.261Z,22.64
2018-04-07T13:53:32.904Z,22.72
2018-04-07T13:54:42.053Z,22.75
2018-04-07T13:55:51.214Z,22.75
2018-04-07T13:57:00.106Z,22.7
2018-04-07T13:58:08.737Z,22.68
2018-04-07T13:59:17.366Z,22.7
2018-04-07T14:00:26.801Z,22.76
2018-04-07T14:01:36.199Z,22.73
2018-04-07T14:02:45.335Z,22.72
2018-04-07T14:03:55.006Z,22.8
2018-04-07T14:05:04.154Z,22.82
2018-04-07T14:06:13.565Z,22.77
2018-04-07T14:07:22.965Z,22.76
2018-04-07T14:08:32.105Z,22.82
2018-04-07T14:09:41.764Z,22.77
2018-04-07T14:10:51.187Z,22.77
2018-04-07T14:12:00.093Z,22.8
2018-04-07T14:13:09.007Z,22.77
2018-04-07T14:14:17.914Z,22.82
2018-04-07T14:15:27.071Z,22.79
2018-04-07T14:16:35.704Z,22.8
2018-04-07T14:17:44.608Z,22.88
2018-04-07T14:18:53.753Z,22.82
2018-04-07T14:20:02.673Z,22.86
2018-04-07T14:21:11.824Z,22.9
2018-04-07T14:22:20.450Z,22.85
2018-04-07T14:23:29.351Z,22.86
2018-04-07T14:24:38.498Z,22.9
2018-04-07T14:25:47.912Z,22.92
2018-04-07T14:26:57.315Z,22.86
2018-04-07T14:28:06.215Z,22.94
2018-04-07T14:29:15.374Z,22.91
2018-04-07T14:30:24.263Z,22.95
2018-04-07T14:31:33.423Z,22.94
2018-04-07T14:32:42.072Z,22.88
2018-04-07T14:33:51.230Z,22.9
2018-04-07T14:35:00.376Z,22.92
2018-04-07T14:36:09.538Z,22.86
2018-04-07T14:37:18.712Z,22.86
2018-04-07T14:38:27.886Z,22.97
2018-04-07T14:39:36.785Z,22.98
2018-04-07T14:40:45.416Z,22.92
2018-04-07T14:41:54.560Z,22.97
2018-04-07T14:43:03.742Z,22.92
2018-04-07T14:44:12.923Z,22.95
2018-04-07T14:45:21.624Z,22.91
2018-04-07T14:46:30.816Z,22.95
2018-04-07T14:47:39.722Z,22.97
2018-04-07T14:48:48.637Z,22.88
2018-04-07T14:49:57.785Z,22.88
2018-04-07T14:51:06.686Z,22.86
2018-04-07T14:52:15.576Z,22.92
2018-04-07T14:53:24.738Z,22.9
2018-04-07T14:54:33.637Z,22.9
2018-04-07T14:55:42.553Z,22.85
2018-04-07T14:56:51.767Z,22.83